Terminal Aerodrome Forecast
Issued by NWS

Home | Current Version | Previous Version | Text Only | Print | Product List | Glossary On
Versions: 1 2 3 4 5 6 7 8 9 10 11 12 13 14 15 16 17 18
000
FTUS46 KSEW 191136
TAFBFI
TAF
KBFI 191136Z 1912/2012 16008KT P6SM -SHRA SCT025 OVC050
      TEMPO 1912/1916 BKN025 OVC050
     FM191800 16010KT P6SM -SHRA BKN030 OVC050
     FM200200 16008KT P6SM VCSH SCT030 BKN060=

USA.gov is the U.S. government's official web portal to all federal, state and local government web resources and services.